createdAt,value
2022-09-14T00:02:07.820Z,20.51
2022-09-14T00:04:33.811Z,20.47
2022-09-14T00:06:59.765Z,20.57
2022-09-14T00:09:25.783Z,20.59
2022-09-14T00:11:52.262Z,20.27
2022-09-14T00:14:18.963Z,20.38
2022-09-14T00:16:44.951Z,20.40
2022-09-14T00:19:19.950Z,19.94
2022-09-14T00:21:50.109Z,20.26
2022-09-14T00:24:15.926Z,20.47
2022-09-14T00:26:41.706Z,20.54
2022-09-14T00:29:07.499Z,20.50
2022-09-14T00:31:38.012Z,20.44
2022-09-14T00:34:06.306Z,20.49
2022-09-14T00:36:33.746Z,20.44
2022-09-14T00:39:00.000Z,20.15
2022-09-14T00:41:29.108Z,20.45
2022-09-14T00:44:26.680Z,20.33
2022-09-14T00:46:54.911Z,20.24
2022-09-14T00:49:24.768Z,20.23
2022-09-14T00:52:08.062Z,20.34
2022-09-14T00:54:36.118Z,20.34
2022-09-14T00:57:03.263Z,20.42
2022-09-14T00:59:32.067Z,20.21
2022-09-14T01:01:58.062Z,20.03
2022-09-14T01:04:23.992Z,20.38
2022-09-14T01:07:02.908Z,20.35
2022-09-14T01:09:40.317Z,20.15
2022-09-14T01:12:13.915Z,20.31
2022-09-14T01:14:48.201Z,20.16
2022-09-14T01:17:27.783Z,20.22
2022-09-14T01:19:59.311Z,20.25
2022-09-14T01:22:49.734Z,20.26
2022-09-14T01:25:41.051Z,20.18
2022-09-14T01:28:15.087Z,20.29
2022-09-14T01:30:41.578Z,20.25
2022-09-14T01:33:28.496Z,20.23
2022-09-14T01:35:59.446Z,18.96
2022-09-14T01:38:32.668Z,19.89
2022-09-14T01:41:00.372Z,19.49
2022-09-14T01:43:35.121Z,19.83
2022-09-14T01:46:09.508Z,19.73
2022-09-14T01:48:39.539Z,19.46
2022-09-14T01:51:09.591Z,18.50
2022-09-14T01:53:42.520Z,19.53
2022-09-14T01:56:21.418Z,19.57
2022-09-14T01:58:57.619Z,19.59
2022-09-14T02:01:50.338Z,15.51
2022-09-14T02:04:22.401Z,19.46
2022-09-14T02:06:48.627Z,19.83
2022-09-14T02:09:19.382Z,19.73
2022-09-14T02:11:46.005Z,18.83
2022-09-14T02:14:11.892Z,19.71
2022-09-14T02:16:39.302Z,19.67
2022-09-14T02:19:05.632Z,19.66
2022-09-14T02:21:32.768Z,19.58
2022-09-14T02:23:59.311Z,19.58
2022-09-14T02:26:25.492Z,19.62
2022-09-14T02:28:55.235Z,19.65
2022-09-14T02:31:38.716Z,19.56
2022-09-14T02:34:13.357Z,19.48
2022-09-14T02:36:55.702Z,19.15
2022-09-14T02:39:44.480Z,18.94
2022-09-14T02:42:36.660Z,19.28
2022-09-14T02:45:21.101Z,19.42
2022-09-14T02:47:58.911Z,19.35
2022-09-14T02:50:33.929Z,19.17
2022-09-14T02:53:20.170Z,18.71
2022-09-14T02:55:49.021Z,18.96
2022-09-14T02:58:15.015Z,18.90
2022-09-14T03:00:46.258Z,19.16
2022-09-14T03:03:14.523Z,19.25
2022-09-14T03:05:40.675Z,19.02
2022-09-14T03:08:07.932Z,18.98
2022-09-14T03:10:33.881Z,19.23
2022-09-14T03:13:00.044Z,19.12
2022-09-14T03:15:26.795Z,19.12
2022-09-14T03:17:53.049Z,18.97
2022-09-14T03:20:25.150Z,18.94
2022-09-14T03:22:51.242Z,18.95
2022-09-14T03:25:18.546Z,19.02
2022-09-14T03:27:49.233Z,18.51
2022-09-14T03:30:15.243Z,19.00
2022-09-14T03:32:41.096Z,18.88
2022-09-14T03:35:08.003Z,19.09
2022-09-14T03:37:36.997Z,18.71
2022-09-14T03:40:03.807Z,18.71
2022-09-14T03:42:30.328Z,18.94
2022-09-14T03:44:56.281Z,18.95
2022-09-14T03:47:22.153Z,18.89
2022-09-14T03:49:48.262Z,18.83
2022-09-14T03:52:14.042Z,18.65
2022-09-14T03:54:39.937Z,15.25
2022-09-14T03:57:06.761Z,18.80
2022-09-14T03:59:33.197Z,18.88
2022-09-14T04:01:59.703Z,18.53
2022-09-14T04:04:26.192Z,18.03
2022-09-14T04:06:52.002Z,18.44
2022-09-14T04:09:18.608Z,18.39
2022-09-14T04:11:45.280Z,18.26
2022-09-14T04:14:12.281Z,18.43
2022-09-14T04:16:39.060Z,18.60
2022-09-14T04:19:05.765Z,18.73
2022-09-14T04:21:32.267Z,17.39
2022-09-14T04:24:15.540Z,18.95
2022-09-14T04:26:43.001Z,18.78
2022-09-14T04:29:09.852Z,18.60
2022-09-14T04:31:35.763Z,17.63
2022-09-14T04:34:01.947Z,18.25
2022-09-14T04:36:30.125Z,18.33
2022-09-14T04:38:57.962Z,18.42
2022-09-14T04:41:24.196Z,18.52
2022-09-14T04:43:51.243Z,18.10
2022-09-14T04:46:21.851Z,18.28
2022-09-14T04:48:48.496Z,17.18
2022-09-14T04:51:16.967Z,17.70
2022-09-14T04:53:44.352Z,17.48
2022-09-14T04:56:11.403Z,17.86
2022-09-14T04:58:41.598Z,18.13
2022-09-14T05:01:10.016Z,17.53
2022-09-14T05:03:40.028Z,18.26
2022-09-14T05:06:08.520Z,16.75
2022-09-14T05:08:35.878Z,18.41
2022-09-14T05:11:01.761Z,18.26
2022-09-14T05:13:27.726Z,18.40
2022-09-14T05:15:54.373Z,18.27
2022-09-14T05:18:20.189Z,18.37
2022-09-14T05:20:45.990Z,18.23
2022-09-14T05:23:11.941Z,18.30
2022-09-14T05:25:37.772Z,18.15
2022-09-14T05:28:03.836Z,18.24
2022-09-14T05:30:29.623Z,17.14
2022-09-14T05:32:58.057Z,18.23
2022-09-14T05:35:24.081Z,18.19
2022-09-14T05:37:49.896Z,18.21
2022-09-14T05:40:15.778Z,18.13
2022-09-14T05:42:41.589Z,18.32
2022-09-14T05:45:07.742Z,18.20
2022-09-14T05:47:38.369Z,18.28
2022-09-14T05:50:07.674Z,18.22
2022-09-14T05:52:33.482Z,18.00
2022-09-14T05:54:59.274Z,18.21
2022-09-14T05:57:25.056Z,18.01
2022-09-14T05:59:50.852Z,17.88
2022-09-14T06:02:18.228Z,17.71
2022-09-14T06:04:44.262Z,17.87
2022-09-14T06:07:18.319Z,18.04
2022-09-14T06:09:44.994Z,17.98
2022-09-14T06:12:10.829Z,17.71
2022-09-14T06:14:36.821Z,17.73
2022-09-14T06:17:04.955Z,17.95
2022-09-14T06:19:30.753Z,18.01
2022-09-14T06:21:56.598Z,18.15
2022-09-14T06:24:22.468Z,18.05
2022-09-14T06:26:48.260Z,18.13
2022-09-14T06:29:14.221Z,18.08
2022-09-14T06:31:40.087Z,18.07
2022-09-14T06:34:05.917Z,17.73
2022-09-14T06:36:31.727Z,17.97
2022-09-14T06:38:59.414Z,17.82
2022-09-14T06:41:32.040Z,17.93
2022-09-14T06:44:00.818Z,17.98
2022-09-14T06:46:31.971Z,17.35
2022-09-14T06:49:12.308Z,17.81
2022-09-14T06:51:39.003Z,17.88
2022-09-14T06:54:05.780Z,17.95
2022-09-14T06:56:39.876Z,18.02
2022-09-14T06:59:06.987Z,17.82
2022-09-14T07:01:33.017Z,17.89
2022-09-14T07:04:00.215Z,16.38
2022-09-14T07:06:28.405Z,17.26
2022-09-14T07:08:55.062Z,17.31
2022-09-14T07:11:23.061Z,15.73
2022-09-14T07:13:49.007Z,17.41
2022-09-14T07:16:14.833Z,17.65
2022-09-14T07:18:41.047Z,17.69
2022-09-14T07:21:16.321Z,17.75
2022-09-14T07:23:43.360Z,17.63
2022-09-14T07:26:10.230Z,17.18
2022-09-14T07:28:36.615Z,16.99
2022-09-14T07:31:04.222Z,17.38
2022-09-14T07:33:30.293Z,17.37
2022-09-14T07:36:05.068Z,17.52
2022-09-14T07:38:50.974Z,17.13
2022-09-14T07:41:17.350Z,17.56
2022-09-14T07:43:43.203Z,17.68
2022-09-14T07:46:09.125Z,17.85
2022-09-14T07:48:35.543Z,17.83
2022-09-14T07:51:11.036Z,17.79
2022-09-14T07:53:39.803Z,17.80
2022-09-14T07:56:06.841Z,17.20
2022-09-14T07:58:33.047Z,16.59
2022-09-14T08:01:03.934Z,17.97
2022-09-14T08:03:30.887Z,17.80
2022-09-14T08:06:01.396Z,17.22
2022-09-14T08:08:31.726Z,17.67
2022-09-14T08:11:12.967Z,17.27
2022-09-14T08:13:43.916Z,17.54
2022-09-14T08:16:10.350Z,17.82
2022-09-14T08:18:36.819Z,17.86
2022-09-14T08:21:08.133Z,17.94
2022-09-14T08:23:34.415Z,17.92
2022-09-14T08:26:07.376Z,17.99
2022-09-14T08:28:33.734Z,17.93
2022-09-14T08:31:03.646Z,17.34
2022-09-14T08:33:31.106Z,17.97
2022-09-14T08:35:58.122Z,17.83
2022-09-14T08:38:24.621Z,17.96
2022-09-14T08:40:50.823Z,17.99
2022-09-14T08:43:18.228Z,18.07
2022-09-14T08:45:44.815Z,18.26
2022-09-14T08:48:23.391Z,17.61
2022-09-14T08:50:53.134Z,17.92
2022-09-14T08:53:22.710Z,18.00
2022-09-14T08:55:50.261Z,18.04
2022-09-14T08:58:30.183Z,18.09
2022-09-14T09:01:11.095Z,18.15
2022-09-14T09:04:14.781Z,18.02
2022-09-14T09:07:09.131Z,18.16
2022-09-14T09:09:43.232Z,18.18
2022-09-14T09:12:15.634Z,17.94
2022-09-14T09:14:53.894Z,17.87
2022-09-14T09:17:24.728Z,18.08
2022-09-14T09:19:59.577Z,18.07
2022-09-14T09:22:29.063Z,17.95
2022-09-14T09:24:55.013Z,17.81
2022-09-14T09:27:23.051Z,18.02
2022-09-14T09:29:48.914Z,18.10
2022-09-14T09:32:17.671Z,18.27
2022-09-14T09:34:43.512Z,18.32
2022-09-14T09:37:14.590Z,18.42
2022-09-14T09:39:40.435Z,17.01
2022-09-14T09:42:11.192Z,17.52
2022-09-14T09:45:01.263Z,17.77
2022-09-14T09:47:42.273Z,17.47
2022-09-14T09:50:14.522Z,18.08
2022-09-14T09:52:49.805Z,17.33
2022-09-14T09:55:24.321Z,17.98
2022-09-14T09:57:50.114Z,18.28
2022-09-14T10:00:26.881Z,18.12
2022-09-14T10:02:54.063Z,17.59
2022-09-14T10:05:28.127Z,17.89
2022-09-14T10:08:20.243Z,18.04
2022-09-14T10:10:46.733Z,17.55
2022-09-14T10:13:38.714Z,17.83
2022-09-14T10:16:17.470Z,18.23
2022-09-14T10:18:49.228Z,18.31
2022-09-14T10:21:23.155Z,17.85
2022-09-14T10:24:02.961Z,17.32
2022-09-14T10:26:32.902Z,16.89
2022-09-14T10:29:28.055Z,18.09
2022-09-14T10:31:59.330Z,18.03
2022-09-14T10:34:25.165Z,17.15
2022-09-14T10:37:00.635Z,17.69
2022-09-14T10:39:43.310Z,18.10
2022-09-14T10:42:32.668Z,18.09
2022-09-14T10:45:26.750Z,17.14
2022-09-14T10:48:17.968Z,18.10
2022-09-14T10:51:09.995Z,18.22
2022-09-14T10:53:41.021Z,18.34
2022-09-14T10:56:23.063Z,18.18
2022-09-14T10:58:54.549Z,18.01
2022-09-14T11:01:51.178Z,18.18
2022-09-14T11:04:33.464Z,18.21
2022-09-14T11:07:02.197Z,17.91
2022-09-14T11:09:31.578Z,18.13
2022-09-14T11:12:24.529Z,18.02
2022-09-14T11:14:57.813Z,18.10
2022-09-14T11:17:41.926Z,18.07
2022-09-14T11:20:16.537Z,18.02
2022-09-14T11:23:08.177Z,18.14
2022-09-14T11:25:46.426Z,18.03
2022-09-14T11:28:38.062Z,18.03
2022-09-14T11:31:11.277Z,17.94
2022-09-14T11:33:45.627Z,17.53
2022-09-14T11:36:24.372Z,17.88
2022-09-14T11:39:06.728Z,17.95
2022-09-14T11:41:41.032Z,16.92
2022-09-14T11:44:16.690Z,17.95
2022-09-14T11:47:00.507Z,18.03
2022-09-14T11:49:26.906Z,18.06
2022-09-14T11:52:07.251Z,17.38
2022-09-14T11:54:33.558Z,17.48
2022-09-14T11:57:01.355Z,17.57
2022-09-14T11:59:38.947Z,17.82
2022-09-14T12:02:22.958Z,17.88
2022-09-14T12:05:04.421Z,17.90
2022-09-14T12:07:54.776Z,17.90
2022-09-14T12:10:21.299Z,17.22
2022-09-14T12:12:55.628Z,17.81
2022-09-14T12:15:24.463Z,17.71
2022-09-14T12:17:51.814Z,17.65
2022-09-14T12:20:30.721Z,17.72
2022-09-14T12:23:43.757Z,17.73
2022-09-14T12:26:09.560Z,17.90
2022-09-14T12:28:35.358Z,17.82
2022-09-14T12:31:02.137Z,17.57
2022-09-14T12:33:31.057Z,17.74
2022-09-14T12:35:57.459Z,16.66
2022-09-14T12:38:32.197Z,17.83
2022-09-14T12:41:14.308Z,17.74
2022-09-14T12:43:48.967Z,17.61
2022-09-14T12:46:21.158Z,17.59
2022-09-14T12:48:47.158Z,17.59
2022-09-14T12:51:28.539Z,17.72
2022-09-14T12:54:09.606Z,17.70
2022-09-14T12:56:44.292Z,17.80
2022-09-14T12:59:15.880Z,17.94
2022-09-14T13:02:00.236Z,17.81
2022-09-14T13:04:31.850Z,17.90
2022-09-14T13:06:59.874Z,17.76
2022-09-14T13:09:27.918Z,13.62
2022-09-14T13:11:56.556Z,16.86
2022-09-14T13:14:24.696Z,17.89
2022-09-14T13:16:51.578Z,17.52
2022-09-14T13:19:29.136Z,17.60
2022-09-14T13:21:57.625Z,17.82
2022-09-14T13:24:36.607Z,17.76
2022-09-14T13:27:03.637Z,17.57
2022-09-14T13:29:30.394Z,17.69
2022-09-14T13:32:02.402Z,17.64
2022-09-14T13:34:33.093Z,17.74
2022-09-14T13:36:59.171Z,17.16
2022-09-14T13:39:26.307Z,17.33
2022-09-14T13:41:52.995Z,16.89
2022-09-14T13:44:22.851Z,16.94
2022-09-14T13:46:48.743Z,16.82
2022-09-14T13:49:14.573Z,16.93
2022-09-14T13:51:40.380Z,17.07
2022-09-14T13:54:28.054Z,16.63
2022-09-14T13:57:14.775Z,16.12
2022-09-14T14:00:02.498Z,16.37
2022-09-14T14:02:29.300Z,16.82
2022-09-14T14:04:55.120Z,17.09
2022-09-14T14:07:41.160Z,17.13
2022-09-14T14:10:22.346Z,17.16
2022-09-14T14:12:50.816Z,17.30
2022-09-14T14:15:19.571Z,17.29
2022-09-14T14:17:45.799Z,17.06
2022-09-14T14:20:23.915Z,17.21
2022-09-14T14:23:19.251Z,17.19
2022-09-14T14:25:48.415Z,17.15
2022-09-14T14:28:19.120Z,17.36
2022-09-14T14:30:45.082Z,17.31
2022-09-14T14:33:17.904Z,17.38
2022-09-14T14:35:44.304Z,17.40
2022-09-14T14:38:10.320Z,17.41
2022-09-14T14:40:36.404Z,16.83
2022-09-14T14:43:03.443Z,17.36
2022-09-14T14:45:33.188Z,16.19
2022-09-14T14:48:02.054Z,17.45
2022-09-14T14:50:33.437Z,16.98
2022-09-14T14:53:03.043Z,17.22
2022-09-14T14:55:31.437Z,17.27
2022-09-14T14:58:00.318Z,17.21
2022-09-14T15:00:26.734Z,16.65
2022-09-14T15:02:52.523Z,17.13
2022-09-14T15:05:18.444Z,17.09
2022-09-14T15:07:44.846Z,16.95
2022-09-14T15:10:14.657Z,17.04
2022-09-14T15:12:40.694Z,16.97
2022-09-14T15:15:10.236Z,16.84
2022-09-14T15:17:36.025Z,17.20
2022-09-14T15:20:01.891Z,17.27
2022-09-14T15:22:27.684Z,17.33
2022-09-14T15:24:53.550Z,17.12
2022-09-14T15:27:19.371Z,17.20
2022-09-14T15:29:45.302Z,15.37
2022-09-14T15:32:11.216Z,16.97
2022-09-14T15:34:37.053Z,17.15
2022-09-14T15:37:02.992Z,16.74
2022-09-14T15:39:30.888Z,17.19
2022-09-14T15:41:57.178Z,17.34
2022-09-14T15:44:23.159Z,16.46
2022-09-14T15:46:49.947Z,16.68
2022-09-14T15:49:23.424Z,16.69
2022-09-14T15:51:51.181Z,16.86
2022-09-14T15:54:18.776Z,16.47
2022-09-14T15:56:49.625Z,16.55
2022-09-14T15:59:17.008Z,16.92
2022-09-14T16:01:42.841Z,17.14
2022-09-14T16:04:11.736Z,17.22
2022-09-14T16:06:38.193Z,17.17
2022-09-14T16:09:06.795Z,17.21
2022-09-14T16:11:33.495Z,17.05
2022-09-14T16:13:59.961Z,16.99
2022-09-14T16:16:25.871Z,16.98
2022-09-14T16:18:52.198Z,16.04
2022-09-14T16:21:25.628Z,17.00
2022-09-14T16:23:57.391Z,16.07
2022-09-14T16:26:26.165Z,16.21
2022-09-14T16:28:53.179Z,14.97
2022-09-14T16:31:24.201Z,16.19
2022-09-14T16:33:52.484Z,16.39
2022-09-14T16:36:20.579Z,16.27
2022-09-14T16:38:46.381Z,16.60
2022-09-14T16:41:12.901Z,16.98
2022-09-14T16:43:39.225Z,16.91
2022-09-14T16:46:13.587Z,17.10
2022-09-14T16:48:41.422Z,17.17
2022-09-14T16:51:07.638Z,15.73
2022-09-14T16:53:35.182Z,17.11
2022-09-14T16:56:05.775Z,16.92
2022-09-14T16:58:32.648Z,17.07
2022-09-14T17:01:10.660Z,17.18
2022-09-14T17:03:36.965Z,17.10
2022-09-14T17:06:05.529Z,17.15
2022-09-14T17:08:32.274Z,16.94
2022-09-14T17:10:59.000Z,16.54
2022-09-14T17:13:25.504Z,15.80
2022-09-14T17:15:51.669Z,16.74
2022-09-14T17:18:17.607Z,16.99
2022-09-14T17:20:58.296Z,16.82
2022-09-14T17:23:24.423Z,16.55
2022-09-14T17:25:50.281Z,16.85
2022-09-14T17:28:16.377Z,16.47
2022-09-14T17:30:42.566Z,16.80
2022-09-14T17:33:08.560Z,16.70
2022-09-14T17:35:34.551Z,15.67
2022-09-14T17:38:00.664Z,16.33
2022-09-14T17:40:29.713Z,16.70
2022-09-14T17:42:55.727Z,15.79
2022-09-14T17:45:21.588Z,16.76
2022-09-14T17:47:47.387Z,16.97
2022-09-14T17:50:13.258Z,16.86
2022-09-14T17:52:39.033Z,16.93
2022-09-14T17:55:05.376Z,16.60
2022-09-14T17:57:31.304Z,16.87
2022-09-14T17:59:57.093Z,16.93
2022-09-14T18:02:22.909Z,16.94
2022-09-14T18:04:48.742Z,16.70
2022-09-14T18:07:14.574Z,16.90
2022-09-14T18:09:40.594Z,16.89
2022-09-14T18:12:06.912Z,16.91
2022-09-14T18:14:32.706Z,16.81
2022-09-14T18:16:59.175Z,16.52
2022-09-14T18:19:25.639Z,16.51
2022-09-14T18:21:52.748Z,16.26
2022-09-14T18:24:19.378Z,16.49
2022-09-14T18:26:45.609Z,16.63
2022-09-14T18:29:16.744Z,16.60
2022-09-14T18:31:43.090Z,16.49
2022-09-14T18:34:09.402Z,16.42
2022-09-14T18:36:35.240Z,15.76
2022-09-14T18:39:01.515Z,15.42
2022-09-14T18:41:33.289Z,15.88
2022-09-14T18:44:00.126Z,15.96
2022-09-14T18:46:28.392Z,14.66
2022-09-14T18:48:56.840Z,16.01
2022-09-14T18:51:23.099Z,16.40
2022-09-14T18:53:49.030Z,16.59
2022-09-14T18:56:16.478Z,14.66
2022-09-14T18:58:46.437Z,16.45
2022-09-14T19:01:13.457Z,16.54
2022-09-14T19:03:41.005Z,16.54
2022-09-14T19:06:14.986Z,16.51
2022-09-14T19:08:41.868Z,15.83
2022-09-14T19:11:22.462Z,16.52
2022-09-14T19:13:50.076Z,16.75
2022-09-14T19:16:18.056Z,16.79
2022-09-14T19:18:45.658Z,16.67
2022-09-14T19:21:19.679Z,16.71
2022-09-14T19:23:55.265Z,16.77
2022-09-14T19:26:21.048Z,16.72
2022-09-14T19:28:46.982Z,16.64
2022-09-14T19:31:19.566Z,16.42
2022-09-14T19:33:45.905Z,16.50
2022-09-14T19:36:14.679Z,15.20
2022-09-14T19:38:40.935Z,16.67
2022-09-14T19:41:07.404Z,16.48
2022-09-14T19:43:33.928Z,16.55
2022-09-14T19:46:04.359Z,16.67
2022-09-14T19:48:31.299Z,16.53
2022-09-14T19:50:59.284Z,16.55
2022-09-14T19:53:25.640Z,14.61
2022-09-14T19:55:51.566Z,15.26
2022-09-14T19:58:17.357Z,16.01
2022-09-14T20:00:43.161Z,16.08
2022-09-14T20:03:09.033Z,16.12
2022-09-14T20:05:35.006Z,16.33
2022-09-14T20:08:00.964Z,16.22
2022-09-14T20:10:26.885Z,16.19
2022-09-14T20:12:53.639Z,15.35
2022-09-14T20:15:19.568Z,16.41
2022-09-14T20:17:45.357Z,16.33
2022-09-14T20:20:11.193Z,16.36
2022-09-14T20:22:37.147Z,16.46
2022-09-14T20:25:04.061Z,14.94
2022-09-14T20:27:29.860Z,16.40
2022-09-14T20:29:55.631Z,16.52
2022-09-14T20:32:21.654Z,16.28
2022-09-14T20:34:47.451Z,16.48
2022-09-14T20:37:13.238Z,16.21
2022-09-14T20:39:39.085Z,16.55
2022-09-14T20:42:05.154Z,16.49
2022-09-14T20:44:30.938Z,16.48
2022-09-14T20:46:56.797Z,16.58
2022-09-14T20:49:23.110Z,16.37
2022-09-14T20:51:51.793Z,16.49
2022-09-14T20:54:17.895Z,16.51
2022-09-14T20:56:45.527Z,16.49
2022-09-14T20:59:14.929Z,16.62
2022-09-14T21:01:42.553Z,16.58
2022-09-14T21:04:10.806Z,16.36
2022-09-14T21:06:38.517Z,16.39
2022-09-14T21:09:05.470Z,16.16
2022-09-14T21:11:31.700Z,16.38
2022-09-14T21:13:58.118Z,16.44
2022-09-14T21:16:29.467Z,16.51
2022-09-14T21:19:04.986Z,16.45
2022-09-14T21:21:31.103Z,16.50
2022-09-14T21:23:58.191Z,16.41
2022-09-14T21:26:26.799Z,16.47
2022-09-14T21:28:57.582Z,16.47
2022-09-14T21:31:24.660Z,16.28
2022-09-14T21:33:53.947Z,16.34
2022-09-14T21:36:25.204Z,15.76
2022-09-14T21:38:53.577Z,16.04
2022-09-14T21:41:20.885Z,16.39
2022-09-14T21:43:47.169Z,14.81
2022-09-14T21:46:33.503Z,16.33
2022-09-14T21:48:59.604Z,15.92
2022-09-14T21:51:36.439Z,16.20
2022-09-14T21:54:05.799Z,15.09
2022-09-14T21:56:34.478Z,16.10
2022-09-14T21:59:02.808Z,16.20
2022-09-14T22:01:29.621Z,16.12
2022-09-14T22:03:57.154Z,16.19
2022-09-14T22:06:28.145Z,16.15
2022-09-14T22:08:56.789Z,16.07
2022-09-14T22:11:24.986Z,16.04
2022-09-14T22:13:53.810Z,16.09
2022-09-14T22:16:19.925Z,16.11
2022-09-14T22:18:52.252Z,16.12
2022-09-14T22:21:20.636Z,16.18
2022-09-14T22:23:54.629Z,15.50
2022-09-14T22:26:21.285Z,16.06
2022-09-14T22:28:49.389Z,16.11
2022-09-14T22:31:16.964Z,15.99
2022-09-14T22:33:43.122Z,14.53
2022-09-14T22:36:10.049Z,15.89
2022-09-14T22:38:38.450Z,15.84
2022-09-14T22:41:18.922Z,15.94
2022-09-14T22:43:45.330Z,15.93
2022-09-14T22:46:12.088Z,15.72
2022-09-14T22:48:38.535Z,15.82
2022-09-14T22:51:06.258Z,15.70
2022-09-14T22:53:33.036Z,15.74
2022-09-14T22:56:06.732Z,15.43
2022-09-14T22:58:32.772Z,15.70
2022-09-14T23:01:04.736Z,15.60
2022-09-14T23:03:30.798Z,14.59
2022-09-14T23:05:58.944Z,15.56
2022-09-14T23:08:26.445Z,14.10
2022-09-14T23:10:53.924Z,15.01
2022-09-14T23:13:20.222Z,15.55
2022-09-14T23:15:46.261Z,15.65
2022-09-14T23:18:12.286Z,15.65
2022-09-14T23:20:42.705Z,15.66
2022-09-14T23:23:09.893Z,15.56
2022-09-14T23:25:38.736Z,15.53
2022-09-14T23:28:06.096Z,14.56
2022-09-14T23:30:32.714Z,15.67
2022-09-14T23:32:59.313Z,15.66
2022-09-14T23:35:26.302Z,15.55
2022-09-14T23:37:52.784Z,15.53
2022-09-14T23:40:19.020Z,15.56
2022-09-14T23:42:45.903Z,15.57
2022-09-14T23:45:12.553Z,15.54
2022-09-14T23:47:38.861Z,15.64
2022-09-14T23:50:05.393Z,15.36
2022-09-14T23:52:31.602Z,15.55
2022-09-14T23:54:57.716Z,14.06
2022-09-14T23:57:23.778Z,15.40
2022-09-14T23:59:49.825Z,15.44
